Daily Tabular Data
[Select Refresh to Update]


10/14/19
Time         Wind Dir   Wind Spd  Wind Gust     Hum In   Humidity    Temp In       Temp  Raw Barom   Tot Rain Wind Chill Heat Ix In Heat Index  Dew Point  DailyRain   HourRain   RainRate
                            mph        mph          %          %         F         F         in         in         F         F         F         F         in         in      in/hr
12:00am            57          0          4         44         82       73.8       60.7      29.06       0.17       60.7       74.1       65.2       55.2       0.00       0.00      0.000
12:30am            67          1          5         44         82       73.7       59.9      29.05       0.17       59.9       74.0       64.4       54.4       0.00       0.00      0.000
1:00am             92          3          7         44         82       73.5       59.2      29.05       0.17       59.2       73.8       63.7       53.7       0.00       0.00      0.000
1:30am             31          2          6         44         83       73.4       59.1      29.06       0.17       59.1       73.7       63.7       53.9       0.00       0.00      0.000
2:00am             69          1          6         45         83       73.2       58.8      29.06       0.17       58.8       73.5       63.4       53.7       0.00       0.00      0.000
2:30am             92          1          5         45         83       73.0       58.4      29.05       0.17       58.4       73.3       63.0       53.3       0.00       0.00      0.000
3:00am             70          0          6         45         84       72.9       58.1      29.05       0.17       58.1       73.2       62.9       53.3       0.00       0.00      0.000
3:30am             71          0          2         45         84       72.7       58.2      29.05       0.17       58.2       73.0       63.0       53.4       0.00       0.00      0.000
4:00am            304          0          1         45         85       72.5       58.4      29.06       0.17       58.4       72.8       63.3       53.9       0.00       0.00      0.000
4:30am             68          0          1         45         83       72.3       59.3      29.05       0.17       59.3       72.6       63.9       54.1       0.00       0.00      0.000
5:00am             88          0          1         45         84       72.2       59.2      29.06       0.17       59.2       72.5       64.0       54.4       0.00       0.00      0.000
5:30am             87          0          0         45         85       72.1       59.0      29.07       0.17       59.0       72.4       63.9       54.5       0.00       0.00      0.000
6:00am             64          0          2         45         82       71.9       59.8      29.07       0.17       59.8       72.2       64.3       54.3       0.00       0.00      0.000
6:30am             85          1          3         45         80       71.9       60.4      29.07       0.17       60.4       72.2       64.6       54.2       0.00       0.00      0.000
7:00am             63          1          4         45         79       71.8       60.7      29.08       0.17       60.7       72.1       64.8       54.2       0.00       0.00      0.000
7:30am             76          0          2         45         78       71.7       61.2      29.08       0.17       61.2       72.0       65.2       54.3       0.00       0.00      0.000
8:00am             65          0          5         45         75       71.7       62.0      29.09       0.17       62.0       72.0       65.6       54.0       0.00       0.00      0.000
8:30am             74          4          6         45         72       71.8       63.0      29.10       0.17       63.0       72.1       66.2       53.8       0.00       0.00      0.000
9:00am            102          2          6         45         70       71.8       65.0      29.11       0.17       65.0       72.1       68.0       55.0       0.00       0.00      0.000
9:30am            198          0          4         45         65       71.8       67.3      29.12       0.17       67.3       72.1       69.7       55.1       0.00       0.00      0.000
10:00am            62          0          7         45         62       72.0       68.8      29.12       0.17       68.8       72.3       70.8       55.3       0.00       0.00      0.000
10:30am           236          0          4         45         62       72.2       68.1      29.11       0.17       68.1       72.5       70.1       54.6       0.00       0.00      0.000
11:00am           189          0          7         44         59       72.4       70.7      29.11       0.17       70.7       72.7       72.4       55.7       0.00       0.00      0.000
11:30am           230          0          7         44         61       72.6       69.3      29.11       0.17       69.3       72.9       71.2       55.3       0.00       0.00      0.000
12:00pm           181          0          4         44         59       72.8       71.0      29.10       0.17       71.0       73.1       72.7       56.0       0.00       0.00      0.000
12:30pm           215          2          9         44         56       73.0       72.5      29.09       0.17       72.5       73.3       73.9       55.9       0.00       0.00      0.000
1:00pm            242          6          9         44         57       73.2       72.4      29.07       0.17       72.4       73.5       73.9       56.3       0.00       0.00      0.000
1:30pm            250          2         14         44         61       73.4       72.1      29.06       0.17       72.1       73.7       74.0       57.9       0.00       0.00      0.000
2:00pm            229          3         15         44         60       73.6       72.4      29.05       0.17       72.4       73.9       74.2       57.7       0.00       0.00      0.000
2:30pm            207          1          9         44         60       73.8       73.2      29.05       0.17       73.2       74.1       75.0       58.5       0.00       0.00      0.000
3:00pm            240          2         11         44         62       73.9       72.0      29.05       0.17       72.0       74.2       74.0       58.3       0.00       0.00      0.000
3:30pm            240          5         10         44         62       74.1       72.2      29.05       0.17       72.2       74.4       74.2       58.5       0.00       0.00      0.000
4:00pm            255          5         13         44         63       74.3       71.3      29.05       0.17       71.3       74.6       73.4       58.1       0.00       0.00      0.000
4:30pm            253         11         11         44         63       74.4       71.4      29.06       0.17       71.4       74.7       73.5       58.2       0.00       0.00      0.000
5:00pm            252          5         11         45         66       74.5       70.3      29.06       0.17       70.3       74.8       72.8       58.4       0.00       0.00      0.000
5:30pm            246          4         10         45         71       74.6       68.2      29.06       0.17       68.2       74.9       71.3       58.4       0.00       0.00      0.000
6:00pm            252          4          9         45         75       74.7       66.4      29.06       0.17       66.4       75.0       70.0       58.2       0.00       0.00      0.000
6:30pm            244          1          7         45         80       74.7       64.4      29.07       0.17       64.4       75.0       68.6       58.1       0.00       0.00      0.000
7:00pm            246          0          4         46         83       74.6       63.1      29.08       0.17       63.1       75.0       67.7       57.9       0.00       0.00      0.000
7:30pm            246          0          5         46         85       74.5       62.4      29.09       0.17       62.4       74.9       67.3       57.8       0.00       0.00      0.000
8:00pm            234          0          2         46         87       74.4       61.4      29.10       0.17       61.4       74.8       66.6       57.5       0.00       0.00      0.000
8:30pm            247          0          1         46         89       74.2       60.8      29.10       0.17       60.8       74.6       66.3       57.5       0.00       0.00      0.000
9:00pm            250          0          2         47         89       74.1       61.0      29.11       0.17       61.0       74.6       66.5       57.7       0.00       0.00      0.000
9:30pm            250          0          0         47         90       74.0       60.0      29.11       0.17       60.0       74.5       65.6       57.1       0.00       0.00      0.000
10:00pm           250          0          0         47         91       73.8       59.6      29.12       0.17       59.6       74.3       65.4       57.0       0.00       0.00      0.000
10:30pm           250          0          0         47         89       73.6       59.2      29.12       0.17       59.2       74.1       64.7       56.0       0.00       0.00      0.000
11:00pm           250          0          0         47         89       73.5       58.7      29.13       0.17       58.7       74.0       64.2       55.5       0.00       0.00      0.000
11:30pm           244          0          1         47         90       73.3       58.6      29.13       0.17       58.6       73.8       64.2       55.7       0.00       0.00      0.000